sensor_id;sensor_type;location;lat;lon;timestamp;pressure;altitude;pressure_sealevel;temperature;humidity
51299;BME280;37382;45.192;9.790;2022-09-12T00:01:16;101162.13;;;20.65;100.00
51299;BME280;37382;45.192;9.790;2022-09-12T00:03:46;101157.81;;;20.69;100.00
51299;BME280;37382;45.192;9.790;2022-09-12T00:06:17;101157.81;;;20.69;100.00
51299;BME280;37382;45.192;9.790;2022-09-12T00:08:50;101158.91;;;20.51;100.00
51299;BME280;37382;45.192;9.790;2022-09-12T00:11:19;101167.31;;;20.39;100.00
51299;BME280;37382;45.192;9.790;2022-09-12T00:13:47;101168.88;;;20.69;100.00
51299;BME280;37382;45.192;9.790;2022-09-12T00:16:20;101165.28;;;20.68;100.00
51299;BME280;37382;45.192;9.790;2022-09-12T00:18:48;101166.72;;;20.71;100.00
51299;BME280;37382;45.192;9.790;2022-09-12T00:21:17;101164.00;;;20.76;100.00
51299;BME280;37382;45.192;9.790;2022-09-12T00:23:45;101164.66;;;20.83;100.00
51299;BME280;37382;45.192;9.790;2022-09-12T00:26:13;101165.69;;;20.77;100.00
51299;BME280;37382;45.192;9.790;2022-09-12T00:28:41;101171.13;;;20.72;100.00
51299;BME280;37382;45.192;9.790;2022-09-12T00:31:14;101165.09;;;20.97;100.00
51299;BME280;37382;45.192;9.790;2022-09-12T00:33:43;101166.97;;;20.91;100.00
51299;BME280;37382;45.192;9.790;2022-09-12T00:36:17;101155.75;;;20.81;100.00
51299;BME280;37382;45.192;9.790;2022-09-12T00:38:45;101163.34;;;20.69;100.00
51299;BME280;37382;45.192;9.790;2022-09-12T00:41:27;101162.00;;;20.71;100.00
51299;BME280;37382;45.192;9.790;2022-09-12T00:44:01;101170.44;;;21.04;100.00
51299;BME280;37382;45.192;9.790;2022-09-12T00:49:10;101165.28;;;20.90;100.00
51299;BME280;37382;45.192;9.790;2022-09-12T00:51:43;101158.97;;;20.95;100.00
51299;BME280;37382;45.192;9.790;2022-09-12T00:54:16;101160.22;;;20.82;100.00
51299;BME280;37382;45.192;9.790;2022-09-12T00:56:47;101153.91;;;20.87;100.00
51299;BME280;37382;45.192;9.790;2022-09-12T00:59:21;101155.25;;;20.84;100.00
51299;BME280;37382;45.192;9.790;2022-09-12T01:01:51;101156.28;;;20.78;100.00
51299;BME280;37382;45.192;9.790;2022-09-12T01:04:21;101154.59;;;20.99;100.00
51299;BME280;37382;45.192;9.790;2022-09-12T01:06:50;101152.53;;;21.11;100.00
51299;BME280;37382;45.192;9.790;2022-09-12T01:09:20;101156.56;;;20.99;100.00
51299;BME280;37382;45.192;9.790;2022-09-12T01:11:49;101152.75;;;21.05;100.00
51299;BME280;37382;45.192;9.790;2022-09-12T01:14:18;101151.72;;;20.67;100.00
51299;BME280;37382;45.192;9.790;2022-09-12T01:16:47;101142.56;;;20.66;100.00
51299;BME280;37382;45.192;9.790;2022-09-12T01:22:44;101148.31;;;20.65;100.00
51299;BME280;37382;45.192;9.790;2022-09-12T01:25:31;101149.03;;;20.55;100.00
51299;BME280;37382;45.192;9.790;2022-09-12T01:30:47;101147.59;;;20.52;100.00
51299;BME280;37382;45.192;9.790;2022-09-12T01:33:27;101150.06;;;20.88;100.00
51299;BME280;37382;45.192;9.790;2022-09-12T01:39:01;101148.81;;;20.61;100.00
51299;BME280;37382;45.192;9.790;2022-09-12T01:47:38;101142.31;;;20.51;100.00
51299;BME280;37382;45.192;9.790;2022-09-12T01:50:29;101141.94;;;20.25;100.00
51299;BME280;37382;45.192;9.790;2022-09-12T01:53:21;101146.44;;;20.31;100.00
51299;BME280;37382;45.192;9.790;2022-09-12T01:55:54;101143.19;;;20.51;100.00
51299;BME280;37382;45.192;9.790;2022-09-12T01:58:29;101142.53;;;20.83;100.00
51299;BME280;37382;45.192;9.790;2022-09-12T02:01:08;101145.53;;;20.65;100.00
51299;BME280;37382;45.192;9.790;2022-09-12T02:03:50;101147.03;;;20.50;100.00
51299;BME280;37382;45.192;9.790;2022-09-12T02:09:02;101139.81;;;20.10;100.00
51299;BME280;37382;45.192;9.790;2022-09-12T02:11:34;101133.16;;;19.77;100.00
51299;BME280;37382;45.192;9.790;2022-09-12T02:14:11;101140.22;;;19.56;100.00
51299;BME280;37382;45.192;9.790;2022-09-12T02:16:43;101140.56;;;19.60;100.00
51299;BME280;37382;45.192;9.790;2022-09-12T02:19:16;101139.72;;;19.76;100.00
51299;BME280;37382;45.192;9.790;2022-09-12T02:22:03;101136.94;;;20.05;100.00
51299;BME280;37382;45.192;9.790;2022-09-12T02:24:45;101138.78;;;20.16;100.00
51299;BME280;37382;45.192;9.790;2022-09-12T02:27:17;101132.28;;;20.05;100.00
51299;BME280;37382;45.192;9.790;2022-09-12T02:29:47;101130.41;;;19.94;100.00
51299;BME280;37382;45.192;9.790;2022-09-12T02:40:42;101128.16;;;20.08;100.00
51299;BME280;37382;45.192;9.790;2022-09-12T02:43:09;101123.81;;;20.12;100.00
51299;BME280;37382;45.192;9.790;2022-09-12T02:45:37;101134.28;;;20.10;100.00
51299;BME280;37382;45.192;9.790;2022-09-12T02:48:10;101130.72;;;19.81;100.00
51299;BME280;37382;45.192;9.790;2022-09-12T02:50:40;101130.16;;;19.79;100.00
51299;BME280;37382;45.192;9.790;2022-09-12T02:53:09;101125.19;;;19.35;100.00
51299;BME280;37382;45.192;9.790;2022-09-12T02:55:39;101129.59;;;19.19;100.00
51299;BME280;37382;45.192;9.790;2022-09-12T02:58:12;101130.78;;;19.23;100.00
51299;BME280;37382;45.192;9.790;2022-09-12T03:05:56;101133.59;;;19.11;100.00
51299;BME280;37382;45.192;9.790;2022-09-12T03:19:51;101140.13;;;18.70;100.00
51299;BME280;37382;45.192;9.790;2022-09-12T03:30:22;101143.16;;;18.21;100.00
51299;BME280;37382;45.192;9.790;2022-09-12T03:32:51;101144.81;;;18.57;100.00
51299;BME280;37382;45.192;9.790;2022-09-12T03:35:22;101149.88;;;18.37;100.00
51299;BME280;37382;45.192;9.790;2022-09-12T03:37:50;101155.00;;;18.33;100.00
51299;BME280;37382;45.192;9.790;2022-09-12T03:40:18;101158.38;;;18.35;100.00
51299;BME280;37382;45.192;9.790;2022-09-12T03:42:46;101157.28;;;18.12;100.00
51299;BME280;37382;45.192;9.790;2022-09-12T03:45:14;101156.78;;;18.04;100.00
51299;BME280;37382;45.192;9.790;2022-09-12T03:47:42;101159.22;;;18.12;100.00
51299;BME280;37382;45.192;9.790;2022-09-12T03:50:09;101156.28;;;17.95;100.00
51299;BME280;37382;45.192;9.790;2022-09-12T03:52:37;101153.69;;;18.00;100.00
51299;BME280;37382;45.192;9.790;2022-09-12T03:55:05;101147.69;;;18.03;100.00
51299;BME280;37382;45.192;9.790;2022-09-12T03:57:32;101153.81;;;18.17;100.00
51299;BME280;37382;45.192;9.790;2022-09-12T04:00:00;101147.94;;;18.02;100.00
51299;BME280;37382;45.192;9.790;2022-09-12T04:02:38;101161.09;;;18.00;100.00
51299;BME280;37382;45.192;9.790;2022-09-12T04:05:06;101150.03;;;17.88;100.00
51299;BME280;37382;45.192;9.790;2022-09-12T04:07:34;101156.69;;;18.10;100.00
51299;BME280;37382;45.192;9.790;2022-09-12T04:10:02;101155.47;;;18.06;100.00
51299;BME280;37382;45.192;9.790;2022-09-12T04:12:30;101159.69;;;18.09;100.00
51299;BME280;37382;45.192;9.790;2022-09-12T04:14:58;101160.25;;;17.99;100.00
51299;BME280;37382;45.192;9.790;2022-09-12T04:17:25;101162.47;;;17.78;100.00
51299;BME280;37382;45.192;9.790;2022-09-12T04:19:52;101164.47;;;17.71;100.00
51299;BME280;37382;45.192;9.790;2022-09-12T04:22:20;101161.03;;;17.76;100.00
51299;BME280;37382;45.192;9.790;2022-09-12T04:24:47;101168.56;;;17.81;100.00
51299;BME280;37382;45.192;9.790;2022-09-12T04:27:14;101165.47;;;17.77;100.00
51299;BME280;37382;45.192;9.790;2022-09-12T04:29:42;101162.19;;;17.68;100.00
51299;BME280;37382;45.192;9.790;2022-09-12T04:32:11;101170.50;;;17.50;100.00
51299;BME280;37382;45.192;9.790;2022-09-12T04:34:38;101168.69;;;17.43;100.00
51299;BME280;37382;45.192;9.790;2022-09-12T04:37:06;101173.91;;;17.33;100.00
51299;BME280;37382;45.192;9.790;2022-09-12T04:39:33;101169.63;;;17.37;100.00
51299;BME280;37382;45.192;9.790;2022-09-12T04:42:00;101179.00;;;17.30;100.00
51299;BME280;37382;45.192;9.790;2022-09-12T04:44:28;101179.47;;;17.27;100.00
51299;BME280;37382;45.192;9.790;2022-09-12T04:46:56;101178.66;;;17.26;100.00
51299;BME280;37382;45.192;9.790;2022-09-12T04:49:23;101182.28;;;17.38;100.00
51299;BME280;37382;45.192;9.790;2022-09-12T04:51:52;101180.19;;;17.52;100.00
51299;BME280;37382;45.192;9.790;2022-09-12T04:54:21;101180.81;;;17.54;100.00
51299;BME280;37382;45.192;9.790;2022-09-12T04:56:49;101182.84;;;17.29;100.00
51299;BME280;37382;45.192;9.790;2022-09-12T04:59:19;101184.75;;;17.28;100.00
51299;BME280;37382;45.192;9.790;2022-09-12T05:01:46;101186.38;;;17.36;100.00
51299;BME280;37382;45.192;9.790;2022-09-12T05:04:14;101178.78;;;17.50;100.00
51299;BME280;37382;45.192;9.790;2022-09-12T05:06:42;101189.25;;;17.71;100.00
51299;BME280;37382;45.192;9.790;2022-09-12T05:09:11;101197.84;;;17.75;100.00
51299;BME280;37382;45.192;9.790;2022-09-12T05:11:42;101188.97;;;17.61;100.00
51299;BME280;37382;45.192;9.790;2022-09-12T05:14:30;101194.47;;;17.61;100.00
51299;BME280;37382;45.192;9.790;2022-09-12T05:16:59;101198.72;;;17.87;100.00
51299;BME280;37382;45.192;9.790;2022-09-12T05:19:29;101194.03;;;18.06;100.00
51299;BME280;37382;45.192;9.790;2022-09-12T05:21:57;101198.47;;;18.19;100.00
51299;BME280;37382;45.192;9.790;2022-09-12T05:24:25;101198.56;;;18.01;100.00
51299;BME280;37382;45.192;9.790;2022-09-12T05:26:52;101206.00;;;18.00;100.00
51299;BME280;37382;45.192;9.790;2022-09-12T05:29:19;101205.53;;;18.15;100.00
51299;BME280;37382;45.192;9.790;2022-09-12T05:31:47;101202.22;;;18.48;100.00
51299;BME280;37382;45.192;9.790;2022-09-12T05:34:17;101214.78;;;18.56;100.00
51299;BME280;37382;45.192;9.790;2022-09-12T05:36:45;101207.31;;;18.80;100.00
51299;BME280;37382;45.192;9.790;2022-09-12T05:39:13;101209.88;;;18.94;100.00
51299;BME280;37382;45.192;9.790;2022-09-12T05:41:41;101207.25;;;18.99;100.00
51299;BME280;37382;45.192;9.790;2022-09-12T05:44:10;101203.75;;;18.80;100.00
51299;BME280;37382;45.192;9.790;2022-09-12T05:46:40;101211.78;;;18.93;100.00
51299;BME280;37382;45.192;9.790;2022-09-12T05:49:10;101218.84;;;18.89;100.00
51299;BME280;37382;45.192;9.790;2022-09-12T05:51:41;101211.19;;;18.79;100.00
51299;BME280;37382;45.192;9.790;2022-09-12T05:54:11;101221.34;;;19.14;100.00
51299;BME280;37382;45.192;9.790;2022-09-12T05:56:40;101219.59;;;19.37;100.00
51299;BME280;37382;45.192;9.790;2022-09-12T05:59:19;101230.69;;;19.13;100.00
51299;BME280;37382;45.192;9.790;2022-09-12T06:01:48;101232.53;;;19.36;100.00
51299;BME280;37382;45.192;9.790;2022-09-12T06:04:16;101217.97;;;19.53;100.00
51299;BME280;37382;45.192;9.790;2022-09-12T06:06:44;101217.66;;;19.49;100.00
51299;BME280;37382;45.192;9.790;2022-09-12T06:09:14;101217.00;;;19.59;100.00
51299;BME280;37382;45.192;9.790;2022-09-12T06:11:43;101215.75;;;19.67;100.00
51299;BME280;37382;45.192;9.790;2022-09-12T06:14:13;101217.84;;;19.88;100.00
51299;BME280;37382;45.192;9.790;2022-09-12T06:16:41;101222.03;;;19.91;100.00
51299;BME280;37382;45.192;9.790;2022-09-12T06:19:20;101226.53;;;19.80;100.00
51299;BME280;37382;45.192;9.790;2022-09-12T06:21:48;101224.03;;;19.96;100.00
51299;BME280;37382;45.192;9.790;2022-09-12T06:24:17;101224.78;;;19.91;100.00
51299;BME280;37382;45.192;9.790;2022-09-12T06:26:45;101227.75;;;20.01;100.00
51299;BME280;37382;45.192;9.790;2022-09-12T06:29:13;101229.84;;;20.28;100.00
51299;BME280;37382;45.192;9.790;2022-09-12T06:31:42;101224.00;;;20.24;100.00
51299;BME280;37382;45.192;9.790;2022-09-12T06:34:12;101220.03;;;20.20;100.00
51299;BME280;37382;45.192;9.790;2022-09-12T06:36:45;101220.31;;;20.53;100.00
51299;BME280;37382;45.192;9.790;2022-09-12T06:39:23;101219.97;;;20.66;100.00
51299;BME280;37382;45.192;9.790;2022-09-12T06:41:51;101220.13;;;20.76;100.00
51299;BME280;37382;45.192;9.790;2022-09-12T06:44:32;101220.16;;;20.99;100.00
51299;BME280;37382;45.192;9.790;2022-09-12T06:46:59;101224.56;;;21.17;100.00
51299;BME280;37382;45.192;9.790;2022-09-12T06:49:27;101224.59;;;21.22;100.00
51299;BME280;37382;45.192;9.790;2022-09-12T06:51:55;101218.09;;;21.33;100.00
51299;BME280;37382;45.192;9.790;2022-09-12T06:54:22;101219.81;;;21.56;100.00
51299;BME280;37382;45.192;9.790;2022-09-12T06:56:52;101220.88;;;21.55;100.00
51299;BME280;37382;45.192;9.790;2022-09-12T06:59:20;101216.81;;;21.63;100.00
51299;BME280;37382;45.192;9.790;2022-09-12T07:01:49;101210.50;;;21.67;100.00
51299;BME280;37382;45.192;9.790;2022-09-12T07:04:17;101211.91;;;21.70;100.00
51299;BME280;37382;45.192;9.790;2022-09-12T07:06:44;101215.91;;;21.84;100.00
51299;BME280;37382;45.192;9.790;2022-09-12T07:09:13;101213.47;;;21.88;100.00
51299;BME280;37382;45.192;9.790;2022-09-12T07:11:44;101218.56;;;22.01;100.00
51299;BME280;37382;45.192;9.790;2022-09-12T07:14:13;101213.09;;;22.07;100.00
51299;BME280;37382;45.192;9.790;2022-09-12T07:16:42;101214.81;;;22.13;100.00
51299;BME280;37382;45.192;9.790;2022-09-12T07:19:09;101217.47;;;22.02;100.00
51299;BME280;37382;45.192;9.790;2022-09-12T07:21:37;101217.22;;;22.36;100.00
51299;BME280;37382;45.192;9.790;2022-09-12T07:24:08;101214.81;;;22.13;100.00
51299;BME280;37382;45.192;9.790;2022-09-12T07:26:38;101217.94;;;22.21;100.00
51299;BME280;37382;45.192;9.790;2022-09-12T07:29:07;101209.94;;;22.30;100.00
51299;BME280;37382;45.192;9.790;2022-09-12T07:31:59;101220.31;;;22.40;100.00
51299;BME280;37382;45.192;9.790;2022-09-12T07:34:28;101218.34;;;22.35;100.00
51299;BME280;37382;45.192;9.790;2022-09-12T07:36:55;101216.16;;;22.43;100.00
51299;BME280;37382;45.192;9.790;2022-09-12T07:39:23;101221.06;;;22.63;100.00
51299;BME280;37382;45.192;9.790;2022-09-12T07:41:51;101223.31;;;22.76;100.00
51299;BME280;37382;45.192;9.790;2022-09-12T07:44:18;101229.50;;;22.88;100.00
51299;BME280;37382;45.192;9.790;2022-09-12T07:46:48;101225.16;;;23.08;100.00
51299;BME280;37382;45.192;9.790;2022-09-12T07:49:16;101219.97;;;23.17;100.00
51299;BME280;37382;45.192;9.790;2022-09-12T07:51:44;101219.16;;;23.21;100.00
51299;BME280;37382;45.192;9.790;2022-09-12T07:54:12;101223.88;;;23.21;100.00
51299;BME280;37382;45.192;9.790;2022-09-12T07:56:40;101219.53;;;22.92;100.00
51299;BME280;37382;45.192;9.790;2022-09-12T07:59:07;101221.00;;;23.05;100.00
51299;BME280;37382;45.192;9.790;2022-09-12T08:01:35;101228.78;;;23.08;100.00
51299;BME280;37382;45.192;9.790;2022-09-12T08:04:03;101225.00;;;23.25;100.00
51299;BME280;37382;45.192;9.790;2022-09-12T08:06:32;101217.84;;;23.39;100.00
51299;BME280;37382;45.192;9.790;2022-09-12T08:09:03;101226.41;;;23.33;100.00
51299;BME280;37382;45.192;9.790;2022-09-12T08:11:31;101222.91;;;23.58;100.00
51299;BME280;37382;45.192;9.790;2022-09-12T08:13:59;101226.75;;;23.57;100.00
51299;BME280;37382;45.192;9.790;2022-09-12T08:16:29;101225.44;;;23.75;100.00
51299;BME280;37382;45.192;9.790;2022-09-12T08:18:59;101216.31;;;23.90;100.00
51299;BME280;37382;45.192;9.790;2022-09-12T08:21:29;101216.31;;;23.85;100.00
51299;BME280;37382;45.192;9.790;2022-09-12T08:24:02;101226.34;;;23.91;100.00
51299;BME280;37382;45.192;9.790;2022-09-12T08:26:31;101219.34;;;23.83;100.00
51299;BME280;37382;45.192;9.790;2022-09-12T08:28:59;101220.50;;;24.03;100.00
51299;BME280;37382;45.192;9.790;2022-09-12T08:31:27;101224.97;;;24.09;100.00
51299;BME280;37382;45.192;9.790;2022-09-12T08:33:55;101230.22;;;24.21;100.00
51299;BME280;37382;45.192;9.790;2022-09-12T08:36:25;101225.78;;;23.99;100.00
51299;BME280;37382;45.192;9.790;2022-09-12T08:38:55;101228.00;;;24.12;100.00
51299;BME280;37382;45.192;9.790;2022-09-12T08:41:48;101224.13;;;24.29;100.00
51299;BME280;37382;45.192;9.790;2022-09-12T08:50:02;101225.75;;;24.71;100.00
51299;BME280;37382;45.192;9.790;2022-09-12T08:54:59;101226.84;;;24.85;100.00
51299;BME280;37382;45.192;9.790;2022-09-12T08:57:28;101223.00;;;24.66;100.00
51299;BME280;37382;45.192;9.790;2022-09-12T08:59:56;101224.06;;;24.91;100.00
51299;BME280;37382;45.192;9.790;2022-09-12T09:08:51;101220.31;;;25.21;100.00
51299;BME280;37382;45.192;9.790;2022-09-12T09:16:59;101215.84;;;25.35;100.00
51299;BME280;37382;45.192;9.790;2022-09-12T09:19:33;101225.00;;;25.46;100.00
51299;BME280;37382;45.192;9.790;2022-09-12T09:22:20;101219.94;;;25.48;100.00
51299;BME280;37382;45.192;9.790;2022-09-12T09:25:05;101215.03;;;25.30;100.00
51299;BME280;37382;45.192;9.790;2022-09-12T09:27:44;101214.38;;;25.48;100.00
51299;BME280;37382;45.192;9.790;2022-09-12T09:30:16;101215.09;;;25.69;100.00
51299;BME280;37382;45.192;9.790;2022-09-12T09:32:47;101213.78;;;25.96;100.00
51299;BME280;37382;45.192;9.790;2022-09-12T09:35:25;101217.72;;;25.90;100.00
51299;BME280;37382;45.192;9.790;2022-09-12T09:41:34;101207.69;;;25.94;100.00
51299;BME280;37382;45.192;9.790;2022-09-12T09:43:41;101197.28;;;26.10;100.00
51299;BME280;37382;45.192;9.790;2022-09-12T09:46:10;101199.34;;;26.28;100.00
51299;BME280;37382;45.192;9.790;2022-09-12T09:48:52;101197.47;;;26.19;100.00
51299;BME280;37382;45.192;9.790;2022-09-12T09:51:26;101195.41;;;26.30;100.00
51299;BME280;37382;45.192;9.790;2022-09-12T09:56:50;101187.47;;;26.18;100.00
51299;BME280;37382;45.192;9.790;2022-09-12T09:59:25;101192.75;;;26.49;100.00
51299;BME280;37382;45.192;9.790;2022-09-12T10:04:34;101184.00;;;26.55;100.00
51299;BME280;37382;45.192;9.790;2022-09-12T10:07:17;101192.44;;;26.79;100.00
51299;BME280;37382;45.192;9.790;2022-09-12T10:10:14;101177.41;;;26.17;97.14
51299;BME280;37382;45.192;9.790;2022-09-12T10:12:44;101182.41;;;26.49;100.00
51299;BME280;37382;45.192;9.790;2022-09-12T10:15:22;101173.41;;;26.57;97.66
51299;BME280;37382;45.192;9.790;2022-09-12T10:17:53;101172.91;;;26.50;95.29
51299;BME280;37382;45.192;9.790;2022-09-12T10:20:35;101177.28;;;27.10;97.14
51299;BME280;37382;45.192;9.790;2022-09-12T10:23:33;101182.22;;;27.18;96.13
51299;BME280;37382;45.192;9.790;2022-09-12T10:26:12;101178.69;;;27.07;89.57
51299;BME280;37382;45.192;9.790;2022-09-12T10:29:11;101174.72;;;26.65;88.92
51299;BME280;37382;45.192;9.790;2022-09-12T10:31:43;101163.47;;;27.43;89.27
51299;BME280;37382;45.192;9.790;2022-09-12T10:34:37;101161.63;;;27.33;89.43
51299;BME280;37382;45.192;9.790;2022-09-12T10:37:27;101154.63;;;27.11;92.07
51299;BME280;37382;45.192;9.790;2022-09-12T10:39:58;101156.59;;;27.35;87.01
51299;BME280;37382;45.192;9.790;2022-09-12T10:42:46;101149.03;;;27.55;89.78
51299;BME280;37382;45.192;9.790;2022-09-12T10:45:32;101149.06;;;27.87;88.83
51299;BME280;37382;45.192;9.790;2022-09-12T10:48:24;101144.00;;;27.90;85.55
51299;BME280;37382;45.192;9.790;2022-09-12T10:50:54;101145.69;;;28.24;81.93
51299;BME280;37382;45.192;9.790;2022-09-12T10:53:28;101146.78;;;28.09;80.46
51299;BME280;37382;45.192;9.790;2022-09-12T10:56:06;101143.72;;;28.52;81.68
51299;BME280;37382;45.192;9.790;2022-09-12T11:04:19;101135.31;;;27.91;77.78
51299;BME280;37382;45.192;9.790;2022-09-12T11:12:52;101129.47;;;28.81;77.94
51299;BME280;37382;45.192;9.790;2022-09-12T11:35:29;101114.00;;;28.98;63.37
51299;BME280;37382;45.192;9.790;2022-09-12T11:43:41;101114.81;;;29.12;65.53
51299;BME280;37382;45.192;9.790;2022-09-12T11:46:37;101115.06;;;29.38;65.71
51299;BME280;37382;45.192;9.790;2022-09-12T11:52:04;101110.63;;;29.37;63.86
51299;BME280;37382;45.192;9.790;2022-09-12T11:57:30;101102.41;;;28.77;62.88
51299;BME280;37382;45.192;9.790;2022-09-12T12:00:13;101095.13;;;28.48;64.71
51299;BME280;37382;45.192;9.790;2022-09-12T12:06:17;101087.50;;;29.77;62.30
51299;BME280;37382;45.192;9.790;2022-09-12T12:08:43;101084.38;;;30.32;61.00
51299;BME280;37382;45.192;9.790;2022-09-12T12:11:14;101086.91;;;29.66;59.96
51299;BME280;37382;45.192;9.790;2022-09-12T12:13:53;101084.84;;;29.94;60.13
51299;BME280;37382;45.192;9.790;2022-09-12T12:16:32;101080.56;;;30.68;57.81
51299;BME280;37382;45.192;9.790;2022-09-12T12:19:02;101085.97;;;30.65;56.16
51299;BME280;37382;45.192;9.790;2022-09-12T12:21:43;101081.44;;;30.86;55.11
51299;BME280;37382;45.192;9.790;2022-09-12T12:24:22;101083.06;;;30.07;54.16
51299;BME280;37382;45.192;9.790;2022-09-12T12:47:33;101066.03;;;30.75;48.30
51299;BME280;37382;45.192;9.790;2022-09-12T12:52:47;101063.44;;;29.53;47.29
51299;BME280;37382;45.192;9.790;2022-09-12T12:55:24;101065.81;;;30.14;48.69
51299;BME280;37382;45.192;9.790;2022-09-12T12:57:58;101057.28;;;30.77;44.17
51299;BME280;37382;45.192;9.790;2022-09-12T13:00:36;101054.91;;;30.52;45.91
51299;BME280;37382;45.192;9.790;2022-09-12T13:05:45;101042.31;;;31.16;46.41
51299;BME280;37382;45.192;9.790;2022-09-12T13:10:57;101047.59;;;31.35;47.63
51299;BME280;37382;45.192;9.790;2022-09-12T13:13:44;101037.16;;;31.27;43.89
51299;BME280;37382;45.192;9.790;2022-09-12T13:16:50;101033.53;;;31.62;46.35
51299;BME280;37382;45.192;9.790;2022-09-12T13:19:30;101019.25;;;31.75;44.39
51299;BME280;37382;45.192;9.790;2022-09-12T13:22:03;101015.25;;;31.85;43.51
51299;BME280;37382;45.192;9.790;2022-09-12T13:24:32;101011.47;;;31.81;42.40
51299;BME280;37382;45.192;9.790;2022-09-12T13:27:01;101016.69;;;31.35;44.18
51299;BME280;37382;45.192;9.790;2022-09-12T13:29:29;101010.38;;;31.56;40.12
51299;BME280;37382;45.192;9.790;2022-09-12T13:32:00;101010.34;;;31.47;43.89
51299;BME280;37382;45.192;9.790;2022-09-12T13:34:38;101003.41;;;31.62;42.98
51299;BME280;37382;45.192;9.790;2022-09-12T13:40:56;100992.16;;;32.09;40.57
51299;BME280;37382;45.192;9.790;2022-09-12T13:43:38;100995.41;;;31.82;40.78
51299;BME280;37382;45.192;9.790;2022-09-12T13:46:08;100989.19;;;32.15;42.96
51299;BME280;37382;45.192;9.790;2022-09-12T13:48:40;100989.00;;;32.20;41.25
51299;BME280;37382;45.192;9.790;2022-09-12T13:51:21;100983.44;;;32.62;41.10
51299;BME280;37382;45.192;9.790;2022-09-12T13:53:51;100975.25;;;32.48;39.65
51299;BME280;37382;45.192;9.790;2022-09-12T13:56:22;100973.94;;;32.45;39.09
51299;BME280;37382;45.192;9.790;2022-09-12T13:58:58;100963.44;;;32.55;39.70
51299;BME280;37382;45.192;9.790;2022-09-12T14:01:40;100965.59;;;31.89;38.55
51299;BME280;37382;45.192;9.790;2022-09-12T14:04:20;100959.81;;;32.24;40.28
51299;BME280;37382;45.192;9.790;2022-09-12T14:07:13;100952.75;;;33.57;40.95
51299;BME280;37382;45.192;9.790;2022-09-12T14:09:43;100909.84;;;38.86;29.27
51299;BME280;37382;45.192;9.790;2022-09-12T14:12:18;100890.03;;;42.97;23.68
51299;BME280;37382;45.192;9.790;2022-09-12T14:14:51;100894.41;;;45.10;21.03
51299;BME280;37382;45.192;9.790;2022-09-12T14:17:31;100894.06;;;45.83;21.42
51299;BME280;37382;45.192;9.790;2022-09-12T14:20:01;100891.19;;;46.47;19.24
51299;BME280;37382;45.192;9.790;2022-09-12T14:22:30;100895.22;;;50.77;16.18
51299;BME280;37382;45.192;9.790;2022-09-12T14:24:58;100894.38;;;52.41;15.24
51299;BME280;37382;45.192;9.790;2022-09-12T14:27:39;100904.88;;;48.70;15.71
51299;BME280;37382;45.192;9.790;2022-09-12T14:30:26;100903.03;;;50.01;15.16
51299;BME280;37382;45.192;9.790;2022-09-12T14:35:49;100912.47;;;45.38;17.65
51299;BME280;37382;45.192;9.790;2022-09-12T14:38:22;100913.91;;;45.74;18.04
51299;BME280;37382;45.192;9.790;2022-09-12T14:40:58;100922.94;;;46.63;18.17
51299;BME280;37382;45.192;9.790;2022-09-12T14:43:30;100928.06;;;48.24;17.06
51299;BME280;37382;45.192;9.790;2022-09-12T14:46:04;100923.53;;;47.28;17.03
51299;BME280;37382;45.192;9.790;2022-09-12T14:48:43;100919.22;;;49.50;16.08
51299;BME280;37382;45.192;9.790;2022-09-12T14:51:21;100926.66;;;47.00;16.87
51299;BME280;37382;45.192;9.790;2022-09-12T14:53:52;100925.50;;;46.38;17.81
51299;BME280;37382;45.192;9.790;2022-09-12T14:56:21;100922.53;;;46.81;17.49
51299;BME280;37382;45.192;9.790;2022-09-12T14:59:26;100916.56;;;48.79;16.48
51299;BME280;37382;45.192;9.790;2022-09-12T15:04:42;100907.59;;;47.23;16.93
51299;BME280;37382;45.192;9.790;2022-09-12T15:10:04;100903.56;;;51.56;14.51
51299;BME280;37382;45.192;9.790;2022-09-12T15:12:32;100903.44;;;49.90;15.18
51299;BME280;37382;45.192;9.790;2022-09-12T15:15:11;100914.13;;;48.06;16.34
51299;BME280;37382;45.192;9.790;2022-09-12T15:17:39;100903.31;;;49.33;16.62
51299;BME280;37382;45.192;9.790;2022-09-12T15:20:07;100898.88;;;50.46;14.51
51299;BME280;37382;45.192;9.790;2022-09-12T15:22:36;100901.66;;;52.37;14.24
51299;BME280;37382;45.192;9.790;2022-09-12T15:25:05;100897.41;;;50.19;14.62
51299;BME280;37382;45.192;9.790;2022-09-12T15:27:33;100889.34;;;49.31;14.64
51299;BME280;37382;45.192;9.790;2022-09-12T15:30:01;100894.03;;;49.64;15.73
51299;BME280;37382;45.192;9.790;2022-09-12T15:32:29;100896.13;;;48.31;16.43
51299;BME280;37382;45.192;9.790;2022-09-12T15:34:56;100887.44;;;49.63;15.96
51299;BME280;37382;45.192;9.790;2022-09-12T15:37:24;100888.91;;;48.94;15.06
51299;BME280;37382;45.192;9.790;2022-09-12T15:39:51;100883.75;;;45.11;17.79
51299;BME280;37382;45.192;9.790;2022-09-12T15:42:26;100880.69;;;44.94;18.28
51299;BME280;37382;45.192;9.790;2022-09-12T15:44:54;100885.41;;;48.87;15.90
51299;BME280;37382;45.192;9.790;2022-09-12T15:47:28;100885.84;;;48.72;15.70
51299;BME280;37382;45.192;9.790;2022-09-12T15:49:55;100872.78;;;50.37;14.76
51299;BME280;37382;45.192;9.790;2022-09-12T15:52:23;100880.56;;;47.83;16.40
51299;BME280;37382;45.192;9.790;2022-09-12T15:54:50;100882.81;;;48.21;17.06
51299;BME280;37382;45.192;9.790;2022-09-12T15:57:18;100874.66;;;49.13;15.60
51299;BME280;37382;45.192;9.790;2022-09-12T15:59:46;100871.53;;;49.33;15.43